New Ashford, Massachusetts
Current Conditions -  °F | °C
As of 10:52 PM on Friday 24 Oct 2014 (Local Time) from KAQW Reporting Station
Broken Clouds Broken Clouds  
Wind Chill: 41°   Ceiling: 4200
Heat Index: 46°   Visibility: 10mi
Dew Point: 41°   Wind: 9mph
Humidity: 83%   Direction: 260°W
Pressure: 29.84"   Gusts: NA
Location:  42.5714°N, 73.2564°W
Report Text: KAQW 250252Z AUTO 26008KT 10SM SCT019 BKN042 08/05 A2984 RMK AO2 SLP107 T00780050 50001
Loading
Personal Weather Stations






























Interactive Weather Map
Tropical Storm Tracking
New forecast layout! Learn more

10-Day Weather Forecast

Advertisements
Track Severe Weather on mobile